Time;durP1;ratioP1;P1;durP2;ratioP2;P2;SDS_P1;SDS_P2;PMS_P1;PMS_P2;Temp;Humidity;BMP_temperature;BMP_pressure;BME280_temperature;BME280_humidity;BME280_pressure;Samples;Min_cycle;Max_cycle;Signal;HPM_P1;HPM_P2
2022/06/24 00:02:08;;;;;;;5.82;3.55;;;;;;;21.37;53.82;99356.13;5010688;28;20534;-87
2022/06/24 00:04:33;;;;;;;4.55;3.47;;;;;;;21.17;53.99;99339.78;5011853;28;20549;-87
2022/06/24 00:06:59;;;;;;;5.70;3.40;;;;;;;21.23;54.18;99325.38;5027111;28;20018;-87
2022/06/24 00:09:30;;;;;;;4.13;3.22;;;;;;;21.35;54.19;99349.41;5010581;28;20466;-87
2022/06/24 00:12:07;;;;;;;5.07;3.40;;;;;;;21.13;54.18;99338.66;5010636;28;20422;-87
2022/06/24 00:14:35;;;;;;;4.18;3.30;;;;;;;20.20;54.28;99198.28;5010857;28;20028;-87
2022/06/24 00:17:03;;;;;;;3.78;3.33;;;;;;;21.30;54.17;99343.97;5012231;28;20041;-87
2022/06/24 00:19:32;;;;;;;5.03;3.42;;;;;;;20.89;54.29;99296.00;5012367;28;20030;-87
2022/06/24 00:22:03;;;;;;;7.10;3.50;;;;;;;21.27;54.19;99347.97;5027108;28;20022;-87
2022/06/24 00:24:30;;;;;;;3.90;3.58;;;;;;;20.49;54.38;99260.59;5010746;28;20032;-87
2022/06/24 00:26:56;;;;;;;4.35;3.58;;;;;;;20.96;54.49;99327.19;5011975;28;20026;-87
2022/06/24 00:29:24;;;;;;;4.82;3.53;;;;;;;21.10;54.56;99357.97;5011812;28;20032;-88
2022/06/24 00:32:08;;;;;;;4.45;3.80;;;;;;;20.92;54.48;99318.84;5010431;28;20033;-87
2022/06/24 00:34:36;;;;;;;5.45;3.58;;;;;;;20.54;54.59;99276.75;5010912;28;20116;-87
2022/06/24 00:37:23;;;;;;;4.70;4.18;;;;;;;21.13;54.73;99342.16;5010502;28;20173;-87
2022/06/24 00:39:50;;;;;;;5.68;3.80;;;;;;;21.15;54.07;99349.97;5015166;28;20037;-87
2022/06/24 00:42:18;;;;;;;4.90;3.58;;;;;;;20.87;54.46;99297.31;5015872;28;20025;-87
2022/06/24 00:44:50;;;;;;;5.85;3.45;;;;;;;20.89;54.49;99314.78;5015641;28;20026;-87
2022/06/24 00:47:16;;;;;;;4.95;3.75;;;;;;;20.49;54.32;99249.88;5015629;28;20083;-87
2022/06/24 00:49:45;;;;;;;4.70;3.65;;;;;;;20.42;54.56;99243.88;5015509;28;20117;-87
2022/06/24 00:52:11;;;;;;;6.32;3.80;;;;;;;20.30;54.61;99242.09;5015842;28;20080;-87
2022/06/24 00:54:37;;;;;;;3.85;3.15;;;;;;;20.87;54.73;99341.06;5030991;28;20034;-87
2022/06/24 00:57:03;;;;;;;6.45;3.50;;;;;;;20.59;55.06;99311.69;5015521;28;20480;-86
2022/06/24 00:59:34;;;;;;;5.63;3.70;;;;;;;20.71;55.09;99336.53;5013709;28;20065;-87
2022/06/24 01:02:03;;;;;;;4.25;3.80;;;;;;;20.47;54.97;99319.84;5014072;28;20021;-86
2022/06/24 01:04:33;;;;;;;5.10;4.20;;;;;;;20.52;55.06;99319.09;5014871;28;20057;-86
2022/06/24 01:06:58;;;;;;;4.65;3.42;;;;;;;20.28;55.04;99286.31;5013457;28;20112;-86
2022/06/24 01:09:24;;;;;;;4.10;3.63;;;;;;;20.10;55.10;99287.41;5013343;28;20048;-86
2022/06/24 01:11:49;;;;;;;5.82;3.85;;;;;;;20.44;55.18;99327.59;5014678;28;20098;-86
2022/06/24 01:14:15;;;;;;;3.50;3.15;;;;;;;20.13;55.35;99272.69;5013436;28;20044;-86
2022/06/24 01:16:41;;;;;;;4.32;3.45;;;;;;;20.21;55.40;99293.72;5014760;28;20046;-86
2022/06/24 01:19:08;;;;;;;8.07;3.83;;;;;;;19.89;55.41;99248.75;5013428;28;20026;-86
2022/06/24 01:21:40;;;;;;;5.80;3.50;;;;;;;20.48;55.30;99307.25;5030283;28;20038;-86
2022/06/24 01:24:08;;;;;;;3.50;3.20;;;;;;;19.84;55.22;99210.34;5015061;28;20061;-87
2022/06/24 01:26:38;;;;;;;4.50;3.30;;;;;;;20.47;54.96;99305.63;5014799;28;20026;-86
2022/06/24 01:29:04;;;;;;;4.13;3.10;;;;;;;20.23;55.22;99283.56;5013654;28;20442;-86
2022/06/24 01:31:29;;;;;;;4.50;3.35;;;;;;;19.66;55.44;99200.72;5013591;28;20087;-87
2022/06/24 01:33:56;;;;;;;4.22;3.33;;;;;;;19.75;55.54;99223.34;5015108;28;20087;-86
2022/06/24 01:36:22;;;;;;;7.25;3.75;;;;;;;20.32;55.36;99316.94;5014600;28;20108;-87
2022/06/24 01:38:47;;;;;;;6.03;3.50;;;;;;;20.34;55.34;99316.69;5014366;28;20462;-86
2022/06/24 01:41:13;;;;;;;6.10;3.60;;;;;;;19.58;55.13;99250.16;5014353;28;20026;-86
2022/06/24 01:43:38;;;;;;;4.03;3.58;;;;;;;19.59;55.30;99219.63;5029715;28;20060;-87
2022/06/24 01:46:04;;;;;;;4.53;3.28;;;;;;;19.55;55.35;99213.16;5013035;28;20037;-87
2022/06/24 01:48:30;;;;;;;5.20;3.72;;;;;;;20.24;55.19;99328.88;5012915;28;20030;-87
2022/06/24 01:50:55;;;;;;;4.55;3.92;;;;;;;20.18;55.32;99321.84;5012281;28;20021;-87
2022/06/24 01:53:21;;;;;;;5.32;3.55;;;;;;;20.18;55.47;99353.19;5014525;28;20030;-87
2022/06/24 01:55:46;;;;;;;6.55;3.58;;;;;;;19.84;55.61;99312.16;5012973;28;20030;-87
2022/06/24 01:58:12;;;;;;;4.20;3.70;;;;;;;19.35;55.51;99244.91;5012942;28;20491;-87
2022/06/24 02:00:37;;;;;;;4.03;3.53;;;;;;;19.21;55.43;99198.06;5029541;28;20030;-87
2022/06/24 02:03:06;;;;;;;6.97;3.78;;;;;;;19.54;55.29;99281.16;5014086;28;20029;-87
2022/06/24 02:05:32;;;;;;;3.92;3.53;;;;;;;19.61;55.25;99291.72;5012665;28;20061;-87
2022/06/24 02:07:58;;;;;;;5.80;3.70;;;;;;;19.63;55.09;99314.50;5012751;28;20017;-87
2022/06/24 02:13:26;;;;;;;3.67;3.33;;;;;;;19.41;55.42;99288.66;5014292;28;20105;-87
2022/06/24 02:16:03;;;;;;;4.35;3.20;;;;;;;19.68;55.33;99340.56;5013704;28;20037;-87
2022/06/24 02:18:30;;;;;;;5.35;3.47;;;;;;;19.45;55.30;99285.25;5012290;28;20030;-87
2022/06/24 02:20:56;;;;;;;4.40;3.40;;;;;;;19.88;55.11;99356.16;5028629;28;20030;-86
2022/06/24 02:23:22;;;;;;;4.78;3.40;;;;;;;19.51;55.10;99308.38;5013629;28;20030;-87
2022/06/24 02:25:49;;;;;;;3.08;2.78;;;;;;;19.85;55.06;99359.34;5012013;28;20465;-87
2022/06/24 02:28:14;;;;;;;3.42;3.00;;;;;;;19.83;54.79;99367.63;5028503;28;20109;-87
2022/06/24 02:30:42;;;;;;;4.07;3.33;;;;;;;19.25;54.66;99263.47;5013229;28;20033;-87
2022/06/24 02:33:09;;;;;;;3.92;3.42;;;;;;;19.78;54.72;99335.38;5013191;28;20466;-87
2022/06/24 02:35:35;;;;;;;5.40;3.60;;;;;;;19.55;54.71;99317.59;5028526;28;20387;-86
2022/06/24 02:38:01;;;;;;;3.70;3.05;;;;;;;19.50;54.75;99296.06;5011994;28;20022;-87
2022/06/24 02:40:45;;;;;;;3.90;3.40;;;;;;;19.56;54.88;99289.75;5011793;28;20537;-87
2022/06/24 02:43:16;;;;;;;3.85;3.40;;;;;;;19.50;54.77;99269.28;5013036;28;20514;-87
2022/06/24 02:45:45;;;;;;;4.28;3.47;;;;;;;19.28;54.66;99228.19;5011664;28;20033;-86
2022/06/24 02:48:12;;;;;;;4.72;2.97;;;;;;;19.30;54.58;99236.78;5013161;28;20022;-87
2022/06/24 02:50:42;;;;;;;3.90;3.17;;;;;;;19.58;54.57;99295.69;5012870;28;20053;-87
2022/06/24 02:53:09;;;;;;;5.35;3.38;;;;;;;19.81;54.76;99312.66;5027778;28;20044;-87
2022/06/24 02:55:35;;;;;;;4.43;3.40;;;;;;;19.46;54.63;99280.72;5011608;28;20105;-86
2022/06/24 02:58:00;;;;;;;4.68;3.72;;;;;;;19.62;54.38;99287.97;5011378;28;20037;-87
2022/06/24 03:00:26;;;;;;;3.42;3.13;;;;;;;19.93;54.63;99329.47;5027640;28;20034;-87
2022/06/24 03:02:51;;;;;;;8.25;3.78;;;;;;;19.39;54.64;99242.56;5011664;28;20464;-87
2022/06/24 03:05:17;;;;;;;4.13;3.70;;;;;;;19.67;54.63;99310.28;5027521;28;20498;-86
2022/06/24 03:07:42;;;;;;;5.32;3.28;;;;;;;19.44;54.67;99264.06;5027766;28;20484;-86
2022/06/24 03:10:08;;;;;;;4.22;3.60;;;;;;;19.68;54.53;99303.88;5027711;28;20408;-86
2022/06/24 03:12:34;;;;;;;4.15;3.53;;;;;;;19.40;54.62;99254.91;5027663;28;20108;-87
2022/06/24 03:14:59;;;;;;;4.50;3.45;;;;;;;19.31;54.50;99246.44;5027585;28;20026;-86
2022/06/24 03:17:24;;;;;;;4.50;3.30;;;;;;;19.29;54.30;99240.50;5011059;28;20121;-86
2022/06/24 03:19:50;;;;;;;5.82;3.40;;;;;;;19.47;54.58;99277.78;5011347;28;20487;-87
2022/06/24 03:22:15;;;;;;;4.28;3.53;;;;;;;19.26;54.45;99254.38;5011327;28;20026;-86
2022/06/24 03:24:41;;;;;;;4.43;3.30;;;;;;;19.56;54.59;99289.75;5011410;28;20029;-87
2022/06/24 03:27:06;;;;;;;4.05;3.25;;;;;;;19.87;54.44;99338.47;5011611;28;20010;-87
2022/06/24 03:29:32;;;;;;;4.68;3.60;;;;;;;19.92;54.23;99358.13;5018484;28;20035;-86
2022/06/24 03:31:57;;;;;;;5.38;3.80;;;;;;;19.53;54.14;99302.81;5026152;28;20021;-86
2022/06/24 03:34:23;;;;;;;4.30;3.47;;;;;;;19.37;54.18;99258.88;5024301;28;20052;-86
2022/06/24 03:36:49;;;;;;;3.78;3.20;;;;;;;19.47;54.11;99274.31;5013479;28;20026;-86
2022/06/24 03:39:14;;;;;;;4.38;3.58;;;;;;;20.05;54.06;99362.34;5011159;28;20022;-86
2022/06/24 03:41:40;;;;;;;3.63;3.08;;;;;;;19.55;53.74;99304.19;5027372;28;20032;-87
2022/06/24 03:44:05;;;;;;;3.70;3.33;;;;;;;19.35;54.03;99244.91;5027363;28;20069;-87
2022/06/24 03:46:31;;;;;;;5.00;3.78;;;;;;;18.56;53.90;99110.22;5027293;28;20087;-87
2022/06/24 03:48:56;;;;;;;4.05;3.25;;;;;;;19.53;53.77;99276.03;5010767;28;20481;-87
2022/06/24 03:51:21;;;;;;;7.88;3.38;;;;;;;19.60;53.84;99274.81;5011908;28;20025;-87
2022/06/24 03:53:47;;;;;;;4.63;3.10;;;;;;;20.06;53.68;99344.41;5010557;28;20030;-87
2022/06/24 03:56:12;;;;;;;6.65;4.03;;;;;;;19.36;53.53;99227.81;5010587;28;20148;-87
2022/06/24 03:58:38;;;;;;;4.47;4.00;;;;;;;19.61;53.59;99264.94;5011740;28;20026;-87
2022/06/24 04:01:04;;;;;;;4.82;3.72;;;;;;;19.67;53.71;99270.13;5010576;28;20029;-87
2022/06/24 04:03:29;;;;;;;5.65;3.88;;;;;;;18.91;53.46;99147.53;5011994;28;20036;-87
2022/06/24 04:05:55;;;;;;;7.38;3.47;;;;;;;19.82;53.50;99280.25;5014522;28;20046;-87
2022/06/24 04:08:20;;;;;;;4.68;3.60;;;;;;;19.69;53.55;99264.50;5012012;28;20096;-87
2022/06/24 04:10:46;;;;;;;3.65;3.35;;;;;;;19.85;53.50;99271.72;5011872;28;20104;-86
2022/06/24 04:13:11;;;;;;;5.57;3.72;;;;;;;20.41;53.36;99349.53;5011092;28;20034;-86
2022/06/24 04:15:47;;;;;;;4.07;3.28;;;;;;;20.13;53.28;99305.69;5015845;28;20064;-87
2022/06/24 04:18:13;;;;;;;6.30;4.03;;;;;;;20.48;53.28;99353.66;5015604;28;20033;-87
2022/06/24 04:20:39;;;;;;;5.78;4.15;;;;;;;20.53;53.26;99344.88;5014565;28;20014;-86
2022/06/24 04:23:04;;;;;;;4.57;4.03;;;;;;;20.38;53.35;99317.81;5014660;28;20071;-87
2022/06/24 04:25:30;;;;;;;6.78;3.80;;;;;;;18.99;53.00;99118.53;5014548;28;20384;-87
2022/06/24 04:27:56;;;;;;;4.80;3.95;;;;;;;20.31;53.20;99310.75;5014756;28;20161;-87
2022/06/24 04:30:21;;;;;;;4.40;4.00;;;;;;;20.06;53.18;99259.44;5014627;28;20022;-87
2022/06/24 04:32:46;;;;;;;6.68;4.20;;;;;;;20.65;52.98;99337.53;5030983;28;20036;-86
2022/06/24 04:35:12;;;;;;;6.07;4.50;;;;;;;20.44;53.03;99290.84;5016128;28;20018;-87
2022/06/24 04:37:39;;;;;;;4.80;3.80;;;;;;;20.40;52.85;99292.41;5031138;28;20026;-87
2022/06/24 04:40:07;;;;;;;6.47;4.05;;;;;;;20.78;52.70;99336.34;5015690;28;20049;-87
2022/06/24 04:42:33;;;;;;;8.80;4.13;;;;;;;20.44;52.92;99280.13;5014501;28;20030;-87
2022/06/24 04:44:58;;;;;;;6.47;4.35;;;;;;;20.44;52.77;99268.59;5014564;28;20483;-87
2022/06/24 04:47:24;;;;;;;5.00;4.10;;;;;;;20.46;52.67;99287.91;5015723;28;20029;-87
2022/06/24 04:49:49;;;;;;;6.93;4.55;;;;;;;20.59;52.50;99272.25;5015400;28;20045;-87
2022/06/24 04:52:18;;;;;;;4.90;4.10;;;;;;;20.73;52.46;99291.47;5015229;28;20030;-86
2022/06/24 04:54:44;;;;;;;6.65;3.83;;;;;;;20.66;52.35;99265.91;5013750;28;20032;-86
2022/06/24 04:57:11;;;;;;;5.85;3.97;;;;;;;21.02;52.30;99304.72;5013725;28;20112;-87
2022/06/24 04:59:37;;;;;;;9.98;5.07;;;;;;;21.30;52.31;99327.84;5013794;28;20026;-87
2022/06/24 05:02:03;;;;;;;5.93;4.97;;;;;;;20.87;52.74;99265.91;5015038;28;20080;-87
2022/06/24 05:04:28;;;;;;;5.03;4.53;;;;;;;20.94;52.78;99279.13;5013432;28;20025;-87
2022/06/24 05:06:54;;;;;;;5.43;4.85;;;;;;;20.89;52.71;99255.72;5029945;28;20104;-87
2022/06/24 05:09:20;;;;;;;5.40;4.30;;;;;;;21.47;52.96;99331.25;5029799;28;20022;-86
2022/06/24 05:11:46;;;;;;;8.52;5.30;;;;;;;21.24;53.29;99274.09;5030083;28;20026;-87
2022/06/24 05:14:12;;;;;;;8.90;5.63;;;;;;;21.13;53.92;99250.06;5014882;28;20052;-87
2022/06/24 05:16:38;;;;;;;9.23;5.15;;;;;;;21.36;54.19;99282.00;5013440;28;20032;-86
2022/06/24 05:19:03;;;;;;;5.53;5.03;;;;;;;21.34;54.37;99284.13;5029877;28;20109;-87
2022/06/24 05:21:29;;;;;;;7.03;5.85;;;;;;;21.34;54.46;99241.16;5016810;28;20032;-86
2022/06/24 05:23:54;;;;;;;6.80;5.93;;;;;;;21.56;55.14;99274.16;5048511;28;20017;-86
2022/06/24 05:26:20;;;;;;;7.13;6.00;;;;;;;21.46;55.15;99255.22;5051826;28;20021;-86
2022/06/24 05:28:45;;;;;;;8.60;6.03;;;;;;;22.00;55.44;99333.06;5035534;28;20462;-86
2022/06/24 05:31:11;;;;;;;8.52;5.90;;;;;;;21.69;55.79;99254.09;5034387;28;20561;-86
2022/06/24 05:33:36;;;;;;;6.90;5.60;;;;;;;21.60;55.99;99233.34;5032882;28;20021;-85
2022/06/24 05:36:02;;;;;;;9.43;5.30;;;;;;;21.89;56.03;99291.88;5033998;28;20495;-86
2022/06/24 05:38:27;;;;;;;7.20;4.88;;;;;;;21.77;56.03;99261.69;5032365;28;20087;-86
2022/06/24 05:40:53;;;;;;;6.80;4.97;;;;;;;22.32;56.13;99354.59;5018326;28;20057;-86
2022/06/24 05:43:19;;;;;;;10.05;5.55;;;;;;;22.24;56.22;99324.66;5026892;28;20032;-87
2022/06/24 05:45:45;;;;;;;7.32;5.35;;;;;;;21.86;56.41;99262.81;5029182;28;20032;-86
2022/06/24 05:48:11;;;;;;;8.00;5.63;;;;;;;22.19;56.30;99299.34;5013995;28;20026;-86
2022/06/24 05:50:37;;;;;;;7.38;5.60;;;;;;;22.62;56.35;99367.41;5016516;28;20113;-85
2022/06/24 05:55:49;;;;;;;8.73;5.45;;;;;;;22.27;56.05;99297.25;5014238;28;20088;-86
2022/06/24 05:58:14;;;;;;;6.53;5.00;;;;;;;22.46;55.77;99363.84;5014816;28;20034;-86
2022/06/24 06:00:42;;;;;;;6.55;5.07;;;;;;;22.85;55.82;99387.75;5015583;28;20039;-86
2022/06/24 06:03:07;;;;;;;6.82;5.20;;;;;;;22.45;55.66;99326.44;5035070;28;20022;-86
2022/06/24 06:05:32;;;;;;;6.63;5.47;;;;;;;22.16;55.42;99278.38;5031169;28;20111;-86
2022/06/24 06:07:58;;;;;;;9.88;7.38;;;;;;;22.27;55.66;99287.28;5016476;28;20079;-85
2022/06/24 06:10:23;;;;;;;7.15;6.55;;;;;;;22.85;55.36;99366.22;5020186;28;20068;-85
2022/06/24 06:12:49;;;;;;;9.45;8.30;;;;;;;22.46;55.31;99298.44;5033140;28;20465;-86
2022/06/24 06:15:14;;;;;;;8.52;7.18;;;;;;;22.33;55.35;99290.84;5033319;28;20521;-86
2022/06/24 06:17:40;;;;;;;8.57;7.75;;;;;;;22.67;55.22;99335.16;5048403;28;20025;-86
2022/06/24 06:20:07;;;;;;;7.20;6.07;;;;;;;23.05;54.69;99397.84;5042690;28;20029;-86
2022/06/24 06:22:32;;;;;;;9.18;6.47;;;;;;;23.02;54.24;99379.47;5033275;28;20021;-87
2022/06/24 06:24:58;;;;;;;7.07;5.85;;;;;;;22.64;54.42;99321.41;5040626;28;20414;-85
2022/06/24 06:27:23;;;;;;;7.53;6.15;;;;;;;22.55;54.52;99306.84;5021764;28;20029;-86
2022/06/24 06:29:49;;;;;;;7.70;6.03;;;;;;;23.06;54.42;99402.97;5013276;28;20465;-86
2022/06/24 06:32:14;;;;;;;6.18;5.25;;;;;;;22.93;54.39;99381.88;5011893;28;20443;-86
2022/06/24 06:34:40;;;;;;;9.43;5.75;;;;;;;22.59;54.22;99326.78;5013250;28;20021;-86
2022/06/24 06:37:05;;;;;;;8.32;6.00;;;;;;;22.66;54.04;99330.84;5011376;28;20034;-87
2022/06/24 06:39:31;;;;;;;6.05;5.22;;;;;;;23.01;53.78;99378.66;5028340;28;20064;-86
2022/06/24 06:41:56;;;;;;;9.20;6.75;;;;;;;22.54;53.92;99292.56;5015944;28;20383;-86
2022/06/24 06:44:22;;;;;;;9.00;7.00;;;;;;;23.13;53.65;99375.78;5016244;28;20445;-86
2022/06/24 06:46:48;;;;;;;8.48;7.10;;;;;;;23.09;53.80;99366.63;5024182;28;20010;-87
2022/06/24 06:49:14;;;;;;;11.35;8.57;;;;;;;22.80;53.76;99290.81;5030737;28;20021;-86
2022/06/24 06:51:39;;;;;;;9.05;7.13;;;;;;;23.34;53.81;99361.31;5044021;28;20394;-86
2022/06/24 06:54:06;;;;;;;7.95;6.13;;;;;;;23.56;53.59;99390.75;5026886;28;20030;-86
2022/06/24 06:56:32;;;;;;;8.43;7.15;;;;;;;23.53;53.57;99369.69;5041302;28;20021;-86
2022/06/24 06:58:57;;;;;;;8.10;5.93;;;;;;;23.06;53.49;99284.47;5029180;28;20103;-86
2022/06/24 07:01:23;;;;;;;8.70;6.75;;;;;;;23.29;53.63;99309.28;5030329;28;20422;-85
2022/06/24 07:03:48;;;;;;;7.93;5.78;;;;;;;23.45;53.34;99317.13;5024299;28;20034;-86
2022/06/24 07:06:14;;;;;;;6.45;5.40;;;;;;;23.59;53.37;99348.97;5043492;28;20059;-86
2022/06/24 07:08:40;;;;;;;6.95;5.15;;;;;;;23.80;53.39;99353.34;5030410;28;20060;-85
2022/06/24 07:11:05;;;;;;;5.85;5.25;;;;;;;24.04;53.08;99375.19;5022176;28;20057;-85
2022/06/24 07:13:31;;;;;;;6.57;5.32;;;;;;;23.87;52.81;99343.09;5026954;28;20091;-85
2022/06/24 07:15:56;;;;;;;5.03;4.53;;;;;;;24.00;52.60;99352.53;5029758;28;20029;-85
2022/06/24 07:18:22;;;;;;;6.88;4.70;;;;;;;23.58;52.38;99259.22;5046903;28;20025;-85
2022/06/24 07:20:48;;;;;;;5.05;4.40;;;;;;;24.16;52.50;99367.63;5044950;28;20057;-85
2022/06/24 07:23:13;;;;;;;6.57;4.97;;;;;;;24.19;51.79;99348.19;5043457;28;20464;-85
2022/06/24 07:25:39;;;;;;;7.72;5.30;;;;;;;24.18;51.75;99330.38;5066823;28;20025;-85
2022/06/24 07:28:05;;;;;;;5.45;4.35;;;;;;;24.04;51.64;99307.75;5066897;28;20021;-84
2022/06/24 07:30:31;;;;;;;5.53;4.57;;;;;;;24.22;51.51;99301.78;5051492;28;20082;-84
2022/06/24 07:32:56;;;;;;;6.38;4.57;;;;;;;24.17;50.90;99293.69;5012615;28;20060;-84
2022/06/24 07:35:22;;;;;;;7.65;5.00;;;;;;;24.64;50.59;99343.81;5016300;28;20018;-84
2022/06/24 07:37:48;;;;;;;7.70;7.00;;;;;;;25.04;50.92;99388.81;5021845;28;20030;-84
2022/06/24 07:40:15;;;;;;;7.45;5.90;;;;;;;24.88;50.76;99352.09;5031186;28;20057;-85
2022/06/24 07:42:41;;;;;;;5.43;4.68;;;;;;;24.71;50.19;99325.44;5028485;28;20022;-85
2022/06/24 07:45:07;;;;;;;4.88;4.20;;;;;;;24.98;50.33;99381.81;5029963;28;20517;-85
2022/06/24 07:47:34;;;;;;;6.53;4.57;;;;;;;24.87;50.24;99339.69;5031083;28;20021;-84
2022/06/24 07:50:01;;;;;;;7.15;5.28;;;;;;;24.27;50.22;99258.63;5027486;28;20047;-84
2022/06/24 07:52:26;;;;;;;6.50;5.20;;;;;;;24.51;50.22;99293.91;5018640;28;20131;-85
2022/06/24 07:56:56;;;;;;;8.00;5.20;;;;;;;24.39;50.27;99256.44;5035413;28;20111;-84
2022/06/24 07:57:37;;;;;;;7.28;4.93;;;;;;;25.01;50.35;99330.75;5031269;28;20518;-85
2022/06/24 08:00:03;;;;;;;7.78;5.45;;;;;;;24.96;49.97;99321.81;5029767;28;20071;-85
2022/06/24 08:02:28;;;;;;;5.38;4.88;;;;;;;24.39;49.35;99213.25;5030013;28;20127;-85
2022/06/24 08:04:54;;;;;;;7.85;4.97;;;;;;;25.38;48.96;99361.91;5017255;28;20050;-85
2022/06/24 08:07:19;;;;;;;7.00;5.13;;;;;;;24.93;48.75;99279.16;5029676;28;20024;-84
2022/06/24 08:09:45;;;;;;;5.80;4.38;;;;;;;24.91;47.87;99257.03;5032553;28;20028;-85
2022/06/24 08:12:10;;;;;;;5.90;3.92;;;;;;;25.31;47.67;99313.56;5046974;28;20029;-85
2022/06/24 08:14:35;;;;;;;5.22;4.20;;;;;;;25.21;47.21;99280.38;5030931;28;20060;-85
2022/06/24 08:17:01;;;;;;;5.97;4.20;;;;;;;25.47;47.38;99308.06;5030811;28;20038;-84
2022/06/24 08:19:26;;;;;;;7.65;4.55;;;;;;;25.92;46.08;99361.00;5044692;28;20030;-85
2022/06/24 08:21:52;;;;;;;7.00;3.90;;;;;;;26.04;45.32;99374.19;5030963;28;20423;-84
2022/06/24 08:24:17;;;;;;;4.25;3.25;;;;;;;25.79;44.61;99316.50;5014385;28;20032;-84
2022/06/24 08:26:43;;;;;;;3.17;2.88;;;;;;;25.93;43.22;99344.50;5030605;28;20025;-84
2022/06/24 08:29:10;;;;;;;7.05;3.65;;;;;;;25.07;43.35;99209.16;5030915;28;20025;-85
2022/06/24 08:31:36;;;;;;;4.68;3.00;;;;;;;25.73;42.00;99293.28;5030690;28;20490;-83
2022/06/24 08:34:02;;;;;;;5.18;3.03;;;;;;;25.84;42.16;99300.22;5029515;28;20036;-85
2022/06/24 08:36:27;;;;;;;4.03;3.63;;;;;;;26.48;42.07;99385.72;5015844;28;20058;-84
2022/06/24 08:38:54;;;;;;;4.18;2.63;;;;;;;26.07;41.19;99297.88;5010248;28;20045;-84
2022/06/24 08:41:22;;;;;;;4.57;3.05;;;;;;;26.70;39.99;99363.56;5029295;28;20025;-85
2022/06/24 08:43:51;;;;;;;5.32;3.30;;;;;;;26.80;40.47;99389.75;5020514;28;20033;-85
2022/06/24 08:46:16;;;;;;;10.05;5.40;;;;;;;26.38;40.54;99274.84;5021751;28;20037;-85
2022/06/24 08:48:42;;;;;;;5.13;3.70;;;;;;;26.33;40.00;99260.56;5030226;28;20035;-84
2022/06/24 08:51:11;;;;;;;5.43;3.42;;;;;;;26.75;39.39;99319.34;5032743;28;20032;-85
2022/06/24 08:53:38;;;;;;;5.43;3.45;;;;;;;25.77;39.57;99180.75;5022273;28;20101;-84
2022/06/24 08:56:05;;;;;;;3.88;3.28;;;;;;;27.04;38.83;99349.91;5019997;28;20473;-84
2022/06/24 08:58:30;;;;;;;4.25;2.90;;;;;;;26.85;38.50;99274.00;5029297;28;20406;-85
2022/06/24 09:00:56;;;;;;;5.18;2.50;;;;;;;27.11;37.90;99296.16;5033683;28;20026;-84
2022/06/24 09:03:21;;;;;;;3.75;3.08;;;;;;;26.92;38.31;99247.34;5019364;28;20037;-84
2022/06/24 09:05:47;;;;;;;4.07;3.35;;;;;;;27.59;38.07;99322.31;5022631;28;20041;-84
2022/06/24 09:08:15;;;;;;;4.57;3.20;;;;;;;26.70;37.46;99163.13;5033446;28;20553;-85
2022/06/24 09:10:43;;;;;;;2.67;2.47;;;;;;;27.32;36.56;99225.38;5032354;28;20421;-84
2022/06/24 09:13:21;;;;;;;3.08;2.45;;;;;;;28.21;36.14;99340.03;5025026;28;20025;-85
2022/06/24 09:15:53;;;;;;;2.95;2.58;;;;;;;27.87;35.93;99282.56;5032291;28;20025;-84
2022/06/24 09:18:23;;;;;;;5.65;3.15;;;;;;;28.57;35.28;99332.06;5028429;28;20113;-84
2022/06/24 09:20:55;;;;;;;7.70;2.80;;;;;;;27.75;34.71;99188.06;5050997;28;20032;-84
2022/06/24 09:23:21;;;;;;;3.28;2.40;;;;;;;28.91;33.56;99344.47;5034886;28;20079;-84
2022/06/24 09:25:54;;;;;;;6.25;2.50;;;;;;;29.07;33.25;99330.28;5037207;28;20447;-84
2022/06/24 09:28:30;;;;;;;3.42;2.60;;;;;;;28.82;31.66;99292.69;5017631;28;20017;-84
2022/06/24 09:31:09;;;;;;;5.63;4.53;;;;;;;29.21;32.32;99326.72;5019755;28;20077;-84
2022/06/24 09:33:37;;;;;;;6.72;2.72;;;;;;;29.51;32.87;99331.47;5032447;28;20030;-84
2022/06/24 09:36:04;;;;;;;8.52;3.97;;;;;;;29.71;32.49;99343.78;5030739;28;20029;-84
2022/06/24 09:38:30;;;;;;;7.15;4.82;;;;;;;29.80;32.37;99341.97;5045947;28;20017;-83
2022/06/24 09:41:06;;;;;;;3.15;2.38;;;;;;;29.99;31.91;99328.97;5032266;28;20033;-83
2022/06/24 09:43:32;;;;;;;6.53;3.22;;;;;;;30.15;32.04;99326.66;5031890;28;20498;-84
2022/06/24 09:45:58;;;;;;;9.10;7.82;;;;;;;28.49;32.26;99031.28;5032353;28;20051;-85
2022/06/24 09:48:35;;;;;;;3.80;2.53;;;;;;;30.13;31.36;99262.75;5019820;28;20096;-84
2022/06/24 09:51:05;;;;;;;5.50;2.65;;;;;;;30.21;30.59;99276.41;5027592;28;20041;-85
2022/06/24 09:53:36;;;;;;;3.70;2.50;;;;;;;30.16;30.23;99240.34;5011376;28;20029;-84
2022/06/24 09:56:07;;;;;;;;;;;;;;;30.55;29.96;99338.41;5028000;28;20048;-84
2022/06/24 09:58:34;;;;;;;3.03;2.30;;;;;;;29.97;30.79;99282.19;5031079;28;19913;-85
2022/06/24 10:01:00;;;;;;;6.22;2.90;;;;;;;29.93;30.77;99302.19;5017729;28;20030;-84
2022/06/24 10:03:27;;;;;;;3.03;2.50;;;;;;;29.95;30.30;99319.81;5031956;28;20083;-84
2022/06/24 10:05:59;;;;;;;8.77;3.00;;;;;;;29.87;30.40;99290.63;5021963;28;20558;-84
2022/06/24 10:08:28;;;;;;;3.33;2.50;;;;;;;30.28;30.09;99275.94;5032378;28;20096;-85
2022/06/24 10:10:55;;;;;;;4.97;2.80;;;;;;;30.92;29.26;99328.13;5030612;28;20036;-83
2022/06/24 10:13:26;;;;;;;3.00;2.70;;;;;;;30.94;29.20;99290.44;5026643;28;20065;-84
2022/06/24 10:15:53;;;;;;;3.67;2.67;;;;;;;31.11;28.88;99292.38;5019087;28;20026;-84
2022/06/24 10:18:21;;;;;;;5.78;2.35;;;;;;;31.44;28.33;99317.31;5031423;28;20553;-83
2022/06/24 10:20:47;;;;;;;3.10;2.40;;;;;;;30.77;27.99;99179.47;5023547;28;20117;-83
2022/06/24 10:23:45;;;;;;;3.45;2.58;;;;;;;31.94;27.04;99298.47;5024594;28;20033;-82
2022/06/24 10:26:10;;;;;;;2.88;2.42;;;;;;;32.15;27.97;99299.41;5028710;28;20141;-84
2022/06/24 10:29:08;;;;;;;5.82;3.35;;;;;;;32.34;27.25;99288.13;5031173;28;20021;-84
2022/06/24 10:31:42;;;;;;;5.20;4.05;;;;;;;32.71;27.50;99299.38;5013227;28;20037;-84
2022/06/24 10:34:09;;;;;;;4.82;3.08;;;;;;;32.70;27.23;99303.19;5011554;28;20491;-83
2022/06/24 10:36:35;;;;;;;4.10;2.75;;;;;;;31.44;27.58;99202.72;5011614;28;20024;-84
2022/06/24 10:39:12;;;;;;;4.90;2.85;;;;;;;31.55;27.39;99294.84;5013308;28;20109;-83
2022/06/24 10:41:39;;;;;;;4.22;2.67;;;;;;;30.45;28.09;99125.34;5015416;28;20033;-84
2022/06/24 10:44:26;;;;;;;3.42;2.92;;;;;;;31.87;27.98;99292.72;5022276;28;20045;-84
2022/06/24 10:47:27;;;;;;;3.70;2.90;;;;;;;32.17;26.84;99294.41;5013564;28;20049;-83
2022/06/24 10:49:54;;;;;;;6.28;2.90;;;;;;;32.30;27.70;99297.28;5015341;28;20029;-83
2022/06/24 10:52:36;;;;;;;4.05;2.67;;;;;;;32.38;27.39;99277.31;5013267;28;20041;-83
2022/06/24 10:55:29;;;;;;;6.10;2.83;;;;;;;32.73;27.10;99286.16;5013092;28;20026;-83
2022/06/24 10:57:57;;;;;;;5.70;3.03;;;;;;;32.73;26.75;99284.22;5025625;28;20090;-83
2022/06/24 11:00:23;;;;;;;3.22;2.90;;;;;;;32.85;26.94;99286.28;5019267;28;20036;-83
2022/06/24 11:02:52;;;;;;;3.88;2.80;;;;;;;33.11;26.92;99286.09;5016123;28;20120;-83
2022/06/24 11:05:23;;;;;;;4.35;3.72;;;;;;;33.29;26.76;99282.09;5017707;28;20041;-83
2022/06/24 11:07:49;;;;;;;5.00;3.30;;;;;;;33.15;27.04;99222.16;5017734;28;20537;-83
2022/06/24 11:10:20;;;;;;;3.92;2.47;;;;;;;33.29;25.93;99215.59;5022546;28;20068;-83
2022/06/24 11:13:03;;;;;;;3.95;2.70;;;;;;;33.85;25.77;99282.59;5029426;28;20028;-83
2022/06/24 11:15:42;;;;;;;3.38;2.33;;;;;;;33.75;26.18;99277.50;5029985;28;20472;-82
2022/06/24 11:18:13;;;;;;;3.10;2.55;;;;;;;33.87;25.91;99283.06;5029883;28;20029;-85
2022/06/24 11:20:46;;;;;;;3.97;2.63;;;;;;;33.63;25.63;99198.09;5030644;28;20414;-86
2022/06/24 11:23:14;;;;;;;3.53;3.05;;;;;;;32.50;25.85;99023.25;5026708;28;20060;-85
2022/06/24 11:25:45;;;;;;;3.90;3.25;;;;;;;33.88;25.40;99210.69;5020905;28;20040;-85
2022/06/24 11:28:25;;;;;;;4.47;3.15;;;;;;;34.43;24.88;99277.91;5018090;28;20021;-85
2022/06/24 11:30:53;;;;;;;4.10;2.75;;;;;;;34.25;24.93;99251.84;5014930;28;20057;-85
2022/06/24 11:33:20;;;;;;;4.28;2.58;;;;;;;33.97;25.34;99222.34;5026785;28;20510;-86
2022/06/24 11:35:47;;;;;;;3.13;2.47;;;;;;;34.58;24.40;99270.94;5027762;28;20187;-85
2022/06/24 11:38:13;;;;;;;3.17;2.65;;;;;;;34.85;25.08;99289.44;5020426;28;20056;-85
2022/06/24 11:40:40;;;;;;;2.47;2.20;;;;;;;34.96;24.35;99273.34;5030506;28;20041;-86
2022/06/24 11:43:09;;;;;;;4.47;2.38;;;;;;;35.02;24.63;99282.94;5024945;28;20025;-86